sensor_id;sensor_type;location;lat;lon;timestamp;P1;durP1;ratioP1;P2;durP2;ratioP2
82806;SDS011;72563;44.816;20.484;2023-10-19T00:00:32;9.50;;;5.78;;
82806;SDS011;72563;44.816;20.484;2023-10-19T00:03:04;10.50;;;5.70;;
82806;SDS011;72563;44.816;20.484;2023-10-19T00:05:33;10.18;;;5.47;;
82806;SDS011;72563;44.816;20.484;2023-10-19T00:07:59;10.35;;;5.55;;
82806;SDS011;72563;44.816;20.484;2023-10-19T00:10:30;12.60;;;6.63;;
82806;SDS011;72563;44.816;20.484;2023-10-19T00:13:02;10.90;;;5.93;;
82806;SDS011;72563;44.816;20.484;2023-10-19T00:15:32;10.45;;;5.50;;
82806;SDS011;72563;44.816;20.484;2023-10-19T00:17:59;11.43;;;5.70;;
82806;SDS011;72563;44.816;20.484;2023-10-19T00:20:38;10.73;;;5.50;;
82806;SDS011;72563;44.816;20.484;2023-10-19T00:23:10;10.30;;;5.65;;
82806;SDS011;72563;44.816;20.484;2023-10-19T00:25:38;11.05;;;5.68;;
82806;SDS011;72563;44.816;20.484;2023-10-19T00:28:06;14.90;;;5.95;;
82806;SDS011;72563;44.816;20.484;2023-10-19T00:30:38;11.70;;;5.90;;
82806;SDS011;72563;44.816;20.484;2023-10-19T00:33:07;10.27;;;5.32;;
82806;SDS011;72563;44.816;20.484;2023-10-19T00:35:42;11.15;;;5.45;;
82806;SDS011;72563;44.816;20.484;2023-10-19T00:38:12;9.50;;;5.43;;
82806;SDS011;72563;44.816;20.484;2023-10-19T00:40:55;10.15;;;5.47;;
82806;SDS011;72563;44.816;20.484;2023-10-19T00:43:31;10.60;;;5.30;;
82806;SDS011;72563;44.816;20.484;2023-10-19T00:46:08;11.93;;;5.63;;
82806;SDS011;72563;44.816;20.484;2023-10-19T00:48:47;8.90;;;5.22;;
82806;SDS011;72563;44.816;20.484;2023-10-19T00:51:22;11.80;;;5.90;;
82806;SDS011;72563;44.816;20.484;2023-10-19T00:56:25;11.95;;;6.07;;
82806;SDS011;72563;44.816;20.484;2023-10-19T00:58:56;12.32;;;5.57;;
82806;SDS011;72563;44.816;20.484;2023-10-19T01:01:26;9.73;;;5.05;;
82806;SDS011;72563;44.816;20.484;2023-10-19T01:03:57;11.50;;;5.50;;
82806;SDS011;72563;44.816;20.484;2023-10-19T01:06:23;10.23;;;4.75;;
82806;SDS011;72563;44.816;20.484;2023-10-19T01:08:51;11.73;;;6.05;;
82806;SDS011;72563;44.816;20.484;2023-10-19T01:11:17;11.85;;;5.85;;
82806;SDS011;72563;44.816;20.484;2023-10-19T01:13:46;10.55;;;5.22;;
82806;SDS011;72563;44.816;20.484;2023-10-19T01:16:17;10.05;;;5.93;;
82806;SDS011;72563;44.816;20.484;2023-10-19T01:18:49;9.75;;;5.55;;
82806;SDS011;72563;44.816;20.484;2023-10-19T01:21:19;11.82;;;6.28;;
82806;SDS011;72563;44.816;20.484;2023-10-19T01:23:52;9.77;;;5.97;;
82806;SDS011;72563;44.816;20.484;2023-10-19T01:26:18;14.35;;;5.45;;
82806;SDS011;72563;44.816;20.484;2023-10-19T01:28:46;10.75;;;5.82;;
82806;SDS011;72563;44.816;20.484;2023-10-19T01:31:19;12.77;;;5.95;;
82806;SDS011;72563;44.816;20.484;2023-10-19T01:33:55;12.18;;;5.35;;
82806;SDS011;72563;44.816;20.484;2023-10-19T01:36:23;12.98;;;6.60;;
82806;SDS011;72563;44.816;20.484;2023-10-19T01:38:49;11.40;;;6.15;;
82806;SDS011;72563;44.816;20.484;2023-10-19T01:41:18;10.77;;;5.72;;
82806;SDS011;72563;44.816;20.484;2023-10-19T01:43:45;15.50;;;5.93;;
82806;SDS011;72563;44.816;20.484;2023-10-19T01:46:17;11.02;;;5.45;;
82806;SDS011;72563;44.816;20.484;2023-10-19T01:48:51;10.38;;;5.55;;
82806;SDS011;72563;44.816;20.484;2023-10-19T01:51:20;9.82;;;4.90;;
82806;SDS011;72563;44.816;20.484;2023-10-19T01:53:48;10.02;;;4.93;;
82806;SDS011;72563;44.816;20.484;2023-10-19T01:56:14;11.20;;;5.88;;
82806;SDS011;72563;44.816;20.484;2023-10-19T01:58:42;9.52;;;4.97;;
82806;SDS011;72563;44.816;20.484;2023-10-19T02:01:09;11.80;;;5.60;;
82806;SDS011;72563;44.816;20.484;2023-10-19T02:03:38;9.13;;;5.20;;
82806;SDS011;72563;44.816;20.484;2023-10-19T02:06:10;10.55;;;5.25;;
82806;SDS011;72563;44.816;20.484;2023-10-19T02:08:46;12.50;;;5.30;;
82806;SDS011;72563;44.816;20.484;2023-10-19T02:11:14;11.32;;;5.30;;
82806;SDS011;72563;44.816;20.484;2023-10-19T02:13:47;11.82;;;5.82;;
82806;SDS011;72563;44.816;20.484;2023-10-19T02:16:16;10.45;;;5.30;;
82806;SDS011;72563;44.816;20.484;2023-10-19T02:18:47;9.20;;;4.55;;
82806;SDS011;72563;44.816;20.484;2023-10-19T02:21:13;9.80;;;5.57;;
82806;SDS011;72563;44.816;20.484;2023-10-19T02:23:39;9.38;;;5.40;;
82806;SDS011;72563;44.816;20.484;2023-10-19T02:26:08;10.70;;;5.25;;
82806;SDS011;72563;44.816;20.484;2023-10-19T02:28:34;9.05;;;5.13;;
82806;SDS011;72563;44.816;20.484;2023-10-19T02:31:03;10.10;;;5.15;;
82806;SDS011;72563;44.816;20.484;2023-10-19T02:33:37;9.40;;;4.93;;
82806;SDS011;72563;44.816;20.484;2023-10-19T02:36:03;8.23;;;4.72;;
82806;SDS011;72563;44.816;20.484;2023-10-19T02:38:29;10.18;;;4.80;;
82806;SDS011;72563;44.816;20.484;2023-10-19T02:40:55;9.77;;;5.20;;
82806;SDS011;72563;44.816;20.484;2023-10-19T02:43:21;10.60;;;5.07;;
82806;SDS011;72563;44.816;20.484;2023-10-19T02:45:49;10.43;;;5.57;;
82806;SDS011;72563;44.816;20.484;2023-10-19T02:48:14;9.18;;;4.60;;
82806;SDS011;72563;44.816;20.484;2023-10-19T02:50:41;10.98;;;5.05;;
82806;SDS011;72563;44.816;20.484;2023-10-19T02:53:06;10.88;;;5.00;;
82806;SDS011;72563;44.816;20.484;2023-10-19T02:55:32;9.95;;;4.78;;
82806;SDS011;72563;44.816;20.484;2023-10-19T02:57:57;9.45;;;4.82;;
82806;SDS011;72563;44.816;20.484;2023-10-19T03:00:24;9.00;;;4.55;;
82806;SDS011;72563;44.816;20.484;2023-10-19T03:02:57;10.13;;;5.03;;
82806;SDS011;72563;44.816;20.484;2023-10-19T03:05:25;9.38;;;4.78;;
82806;SDS011;72563;44.816;20.484;2023-10-19T03:07:51;12.15;;;5.20;;
82806;SDS011;72563;44.816;20.484;2023-10-19T03:10:17;9.20;;;4.80;;
82806;SDS011;72563;44.816;20.484;2023-10-19T03:17:58;9.63;;;4.53;;
82806;SDS011;72563;44.816;20.484;2023-10-19T03:20:25;8.25;;;4.50;;
82806;SDS011;72563;44.816;20.484;2023-10-19T03:22:52;9.88;;;4.32;;
82806;SDS011;72563;44.816;20.484;2023-10-19T03:25:18;9.45;;;4.72;;
82806;SDS011;72563;44.816;20.484;2023-10-19T03:28:02;9.45;;;4.53;;
82806;SDS011;72563;44.816;20.484;2023-10-19T03:30:36;9.50;;;4.97;;
82806;SDS011;72563;44.816;20.484;2023-10-19T03:33:03;9.30;;;4.93;;
82806;SDS011;72563;44.816;20.484;2023-10-19T03:35:30;8.05;;;4.03;;
82806;SDS011;72563;44.816;20.484;2023-10-19T03:37:55;11.15;;;4.60;;
82806;SDS011;72563;44.816;20.484;2023-10-19T03:40:25;9.27;;;4.85;;
82806;SDS011;72563;44.816;20.484;2023-10-19T03:42:56;9.38;;;5.20;;
82806;SDS011;72563;44.816;20.484;2023-10-19T03:45:21;9.75;;;5.57;;
82806;SDS011;72563;44.816;20.484;2023-10-19T03:47:50;12.20;;;5.20;;
82806;SDS011;72563;44.816;20.484;2023-10-19T03:50:18;10.07;;;5.47;;
82806;SDS011;72563;44.816;20.484;2023-10-19T03:52:47;9.75;;;4.95;;
82806;SDS011;72563;44.816;20.484;2023-10-19T03:55:13;9.48;;;4.68;;
82806;SDS011;72563;44.816;20.484;2023-10-19T03:57:44;10.95;;;5.82;;
82806;SDS011;72563;44.816;20.484;2023-10-19T04:00:17;11.77;;;5.32;;
82806;SDS011;72563;44.816;20.484;2023-10-19T04:02:50;8.40;;;5.13;;
82806;SDS011;72563;44.816;20.484;2023-10-19T04:05:21;11.10;;;5.68;;
82806;SDS011;72563;44.816;20.484;2023-10-19T04:07:51;9.18;;;5.05;;
82806;SDS011;72563;44.816;20.484;2023-10-19T04:10:20;9.27;;;5.15;;
82806;SDS011;72563;44.816;20.484;2023-10-19T04:12:54;10.02;;;5.88;;
82806;SDS011;72563;44.816;20.484;2023-10-19T04:15:21;9.52;;;4.85;;
82806;SDS011;72563;44.816;20.484;2023-10-19T04:17:47;11.15;;;5.45;;
82806;SDS011;72563;44.816;20.484;2023-10-19T04:20:15;10.45;;;5.88;;
82806;SDS011;72563;44.816;20.484;2023-10-19T04:22:42;12.10;;;5.45;;
82806;SDS011;72563;44.816;20.484;2023-10-19T04:25:08;9.63;;;5.30;;
82806;SDS011;72563;44.816;20.484;2023-10-19T04:27:38;8.93;;;4.70;;
82806;SDS011;72563;44.816;20.484;2023-10-19T04:30:04;8.02;;;5.05;;
82806;SDS011;72563;44.816;20.484;2023-10-19T04:32:40;11.23;;;5.18;;
82806;SDS011;72563;44.816;20.484;2023-10-19T04:35:06;9.75;;;4.85;;
82806;SDS011;72563;44.816;20.484;2023-10-19T04:37:33;10.30;;;5.22;;
82806;SDS011;72563;44.816;20.484;2023-10-19T04:39:59;12.10;;;5.15;;
82806;SDS011;72563;44.816;20.484;2023-10-19T04:42:26;12.45;;;5.07;;
82806;SDS011;72563;44.816;20.484;2023-10-19T04:44:53;11.77;;;5.30;;
82806;SDS011;72563;44.816;20.484;2023-10-19T04:47:20;9.43;;;5.82;;
82806;SDS011;72563;44.816;20.484;2023-10-19T04:49:47;9.63;;;5.15;;
82806;SDS011;72563;44.816;20.484;2023-10-19T04:52:12;9.60;;;5.35;;
82806;SDS011;72563;44.816;20.484;2023-10-19T04:54:38;10.10;;;5.13;;
82806;SDS011;72563;44.816;20.484;2023-10-19T04:57:03;10.73;;;5.18;;
82806;SDS011;72563;44.816;20.484;2023-10-19T04:59:29;11.18;;;5.30;;
82806;SDS011;72563;44.816;20.484;2023-10-19T05:01:58;9.65;;;5.00;;
82806;SDS011;72563;44.816;20.484;2023-10-19T05:04:26;9.15;;;4.40;;
82806;SDS011;72563;44.816;20.484;2023-10-19T05:06:52;8.95;;;4.93;;
82806;SDS011;72563;44.816;20.484;2023-10-19T05:09:18;8.80;;;4.53;;
82806;SDS011;72563;44.816;20.484;2023-10-19T05:11:43;11.35;;;5.13;;
82806;SDS011;72563;44.816;20.484;2023-10-19T05:14:11;11.15;;;5.28;;
82806;SDS011;72563;44.816;20.484;2023-10-19T05:19:04;8.68;;;4.93;;
82806;SDS011;72563;44.816;20.484;2023-10-19T05:21:30;11.18;;;5.38;;
82806;SDS011;72563;44.816;20.484;2023-10-19T05:23:55;10.25;;;5.07;;
82806;SDS011;72563;44.816;20.484;2023-10-19T05:26:21;9.93;;;5.00;;
82806;SDS011;72563;44.816;20.484;2023-10-19T05:28:46;10.10;;;5.57;;
82806;SDS011;72563;44.816;20.484;2023-10-19T05:31:13;10.57;;;5.05;;
82806;SDS011;72563;44.816;20.484;2023-10-19T05:33:39;10.23;;;5.38;;
82806;SDS011;72563;44.816;20.484;2023-10-19T05:36:05;9.50;;;5.45;;
82806;SDS011;72563;44.816;20.484;2023-10-19T05:38:31;12.18;;;5.85;;
82806;SDS011;72563;44.816;20.484;2023-10-19T05:40:57;10.25;;;5.38;;
82806;SDS011;72563;44.816;20.484;2023-10-19T05:43:24;10.38;;;4.88;;
82806;SDS011;72563;44.816;20.484;2023-10-19T05:45:50;9.45;;;5.25;;
82806;SDS011;72563;44.816;20.484;2023-10-19T05:48:19;8.73;;;4.65;;
82806;SDS011;72563;44.816;20.484;2023-10-19T05:50:45;9.95;;;5.20;;
82806;SDS011;72563;44.816;20.484;2023-10-19T05:53:11;10.38;;;5.38;;
82806;SDS011;72563;44.816;20.484;2023-10-19T05:55:37;8.75;;;4.50;;
82806;SDS011;72563;44.816;20.484;2023-10-19T05:58:04;21.02;;;12.32;;
82806;SDS011;72563;44.816;20.484;2023-10-19T06:00:30;24.10;;;14.30;;
82806;SDS011;72563;44.816;20.484;2023-10-19T06:02:56;23.00;;;11.90;;
82806;SDS011;72563;44.816;20.484;2023-10-19T06:05:22;20.10;;;10.85;;
82806;SDS011;72563;44.816;20.484;2023-10-19T06:07:49;11.50;;;6.47;;
82806;SDS011;72563;44.816;20.484;2023-10-19T06:10:16;10.55;;;5.65;;
82806;SDS011;72563;44.816;20.484;2023-10-19T06:12:48;9.50;;;5.60;;
82806;SDS011;72563;44.816;20.484;2023-10-19T06:15:15;9.73;;;4.90;;
82806;SDS011;72563;44.816;20.484;2023-10-19T06:17:42;9.20;;;4.93;;
82806;SDS011;72563;44.816;20.484;2023-10-19T06:20:09;13.52;;;6.00;;
82806;SDS011;72563;44.816;20.484;2023-10-19T06:22:47;8.80;;;4.68;;
82806;SDS011;72563;44.816;20.484;2023-10-19T06:25:19;10.52;;;5.72;;
82806;SDS011;72563;44.816;20.484;2023-10-19T06:27:49;8.57;;;4.68;;
82806;SDS011;72563;44.816;20.484;2023-10-19T06:30:16;9.82;;;5.40;;
82806;SDS011;72563;44.816;20.484;2023-10-19T06:32:53;12.30;;;6.00;;
82806;SDS011;72563;44.816;20.484;2023-10-19T06:35:21;9.68;;;5.45;;
82806;SDS011;72563;44.816;20.484;2023-10-19T06:37:47;10.18;;;5.03;;
82806;SDS011;72563;44.816;20.484;2023-10-19T06:40:14;9.20;;;4.90;;
82806;SDS011;72563;44.816;20.484;2023-10-19T06:42:44;11.90;;;4.95;;
82806;SDS011;72563;44.816;20.484;2023-10-19T06:45:11;11.90;;;5.18;;
82806;SDS011;72563;44.816;20.484;2023-10-19T06:47:43;11.07;;;5.85;;
82806;SDS011;72563;44.816;20.484;2023-10-19T06:50:11;14.52;;;6.38;;
82806;SDS011;72563;44.816;20.484;2023-10-19T06:52:38;14.05;;;7.35;;
82806;SDS011;72563;44.816;20.484;2023-10-19T06:55:04;14.82;;;6.80;;
82806;SDS011;72563;44.816;20.484;2023-10-19T06:57:33;10.75;;;5.85;;
82806;SDS011;72563;44.816;20.484;2023-10-19T06:59:59;11.85;;;5.63;;
82806;SDS011;72563;44.816;20.484;2023-10-19T07:02:35;9.38;;;5.28;;
82806;SDS011;72563;44.816;20.484;2023-10-19T07:05:01;12.65;;;5.57;;
82806;SDS011;72563;44.816;20.484;2023-10-19T07:07:27;8.63;;;5.20;;
82806;SDS011;72563;44.816;20.484;2023-10-19T07:09:53;11.27;;;5.90;;
82806;SDS011;72563;44.816;20.484;2023-10-19T07:12:18;12.52;;;5.90;;
82806;SDS011;72563;44.816;20.484;2023-10-19T07:14:44;10.38;;;5.57;;
82806;SDS011;72563;44.816;20.484;2023-10-19T07:17:09;11.43;;;5.20;;
82806;SDS011;72563;44.816;20.484;2023-10-19T07:19:35;10.38;;;5.60;;
82806;SDS011;72563;44.816;20.484;2023-10-19T07:22:01;8.88;;;5.07;;
82806;SDS011;72563;44.816;20.484;2023-10-19T07:29:31;13.63;;;6.90;;
82806;SDS011;72563;44.816;20.484;2023-10-19T07:31:57;11.85;;;6.20;;
82806;SDS011;72563;44.816;20.484;2023-10-19T07:34:23;12.98;;;6.55;;
82806;SDS011;72563;44.816;20.484;2023-10-19T07:36:55;12.32;;;6.13;;
82806;SDS011;72563;44.816;20.484;2023-10-19T07:39:24;10.90;;;5.88;;
82806;SDS011;72563;44.816;20.484;2023-10-19T07:41:50;10.75;;;6.05;;
82806;SDS011;72563;44.816;20.484;2023-10-19T07:44:16;9.75;;;5.97;;
82806;SDS011;72563;44.816;20.484;2023-10-19T07:46:41;10.95;;;6.10;;
82806;SDS011;72563;44.816;20.484;2023-10-19T07:49:07;11.75;;;5.13;;
82806;SDS011;72563;44.816;20.484;2023-10-19T07:51:33;12.18;;;6.30;;
82806;SDS011;72563;44.816;20.484;2023-10-19T07:53:59;10.70;;;5.65;;
82806;SDS011;72563;44.816;20.484;2023-10-19T07:56:24;11.93;;;6.18;;
82806;SDS011;72563;44.816;20.484;2023-10-19T07:58:50;10.73;;;6.25;;
82806;SDS011;72563;44.816;20.484;2023-10-19T08:01:16;11.23;;;5.82;;
82806;SDS011;72563;44.816;20.484;2023-10-19T08:03:42;10.50;;;6.20;;
82806;SDS011;72563;44.816;20.484;2023-10-19T08:06:07;12.38;;;6.22;;
82806;SDS011;72563;44.816;20.484;2023-10-19T08:08:33;9.65;;;4.70;;
82806;SDS011;72563;44.816;20.484;2023-10-19T08:11:00;11.68;;;5.90;;
82806;SDS011;72563;44.816;20.484;2023-10-19T08:13:25;10.63;;;5.90;;
82806;SDS011;72563;44.816;20.484;2023-10-19T08:15:52;12.13;;;6.22;;
82806;SDS011;72563;44.816;20.484;2023-10-19T08:18:17;9.80;;;5.35;;
82806;SDS011;72563;44.816;20.484;2023-10-19T08:20:44;11.05;;;6.13;;
82806;SDS011;72563;44.816;20.484;2023-10-19T08:23:14;9.98;;;5.90;;
82806;SDS011;72563;44.816;20.484;2023-10-19T08:28:07;11.35;;;5.35;;
82806;SDS011;72563;44.816;20.484;2023-10-19T08:30:32;12.05;;;5.72;;
82806;SDS011;72563;44.816;20.484;2023-10-19T08:32:59;10.68;;;5.28;;
82806;SDS011;72563;44.816;20.484;2023-10-19T08:35:26;11.27;;;5.50;;
82806;SDS011;72563;44.816;20.484;2023-10-19T08:37:52;12.50;;;5.13;;
82806;SDS011;72563;44.816;20.484;2023-10-19T08:40:18;10.50;;;5.10;;
82806;SDS011;72563;44.816;20.484;2023-10-19T08:42:45;9.60;;;5.05;;
82806;SDS011;72563;44.816;20.484;2023-10-19T08:45:11;9.23;;;5.60;;
82806;SDS011;72563;44.816;20.484;2023-10-19T08:47:47;8.82;;;4.75;;
82806;SDS011;72563;44.816;20.484;2023-10-19T08:50:31;8.65;;;4.90;;
82806;SDS011;72563;44.816;20.484;2023-10-19T08:52:59;10.35;;;5.43;;
82806;SDS011;72563;44.816;20.484;2023-10-19T08:55:28;8.95;;;5.07;;
82806;SDS011;72563;44.816;20.484;2023-10-19T08:57:55;9.20;;;4.55;;
82806;SDS011;72563;44.816;20.484;2023-10-19T09:00:24;9.40;;;4.95;;
82806;SDS011;72563;44.816;20.484;2023-10-19T09:02:55;9.27;;;5.45;;
82806;SDS011;72563;44.816;20.484;2023-10-19T09:05:24;9.32;;;5.57;;
82806;SDS011;72563;44.816;20.484;2023-10-19T09:07:51;8.75;;;4.72;;
82806;SDS011;72563;44.816;20.484;2023-10-19T09:10:24;10.45;;;4.82;;
82806;SDS011;72563;44.816;20.484;2023-10-19T09:13:00;7.90;;;4.70;;
82806;SDS011;72563;44.816;20.484;2023-10-19T09:15:33;7.85;;;4.60;;
82806;SDS011;72563;44.816;20.484;2023-10-19T09:18:20;9.00;;;4.80;;
82806;SDS011;72563;44.816;20.484;2023-10-19T09:20:46;9.68;;;4.50;;
82806;SDS011;72563;44.816;20.484;2023-10-19T09:23:27;8.35;;;4.30;;
82806;SDS011;72563;44.816;20.484;2023-10-19T09:25:56;8.93;;;4.75;;
82806;SDS011;72563;44.816;20.484;2023-10-19T09:28:23;10.00;;;4.80;;
82806;SDS011;72563;44.816;20.484;2023-10-19T09:30:49;8.80;;;4.43;;
82806;SDS011;72563;44.816;20.484;2023-10-19T09:33:16;10.82;;;5.45;;
82806;SDS011;72563;44.816;20.484;2023-10-19T09:35:46;10.98;;;5.43;;
82806;SDS011;72563;44.816;20.484;2023-10-19T09:38:14;12.32;;;5.82;;
82806;SDS011;72563;44.816;20.484;2023-10-19T09:40:41;9.77;;;4.85;;
82806;SDS011;72563;44.816;20.484;2023-10-19T09:43:08;9.10;;;5.47;;
82806;SDS011;72563;44.816;20.484;2023-10-19T09:45:41;8.85;;;4.72;;
82806;SDS011;72563;44.816;20.484;2023-10-19T09:48:08;10.77;;;5.35;;
82806;SDS011;72563;44.816;20.484;2023-10-19T09:50:34;9.60;;;5.05;;
82806;SDS011;72563;44.816;20.484;2023-10-19T09:53:00;12.75;;;5.40;;
82806;SDS011;72563;44.816;20.484;2023-10-19T09:55:34;10.32;;;5.32;;
82806;SDS011;72563;44.816;20.484;2023-10-19T10:00:58;8.93;;;5.50;;
82806;SDS011;72563;44.816;20.484;2023-10-19T10:03:47;9.90;;;5.03;;
82806;SDS011;72563;44.816;20.484;2023-10-19T10:06:15;9.82;;;5.05;;
82806;SDS011;72563;44.816;20.484;2023-10-19T10:08:42;9.65;;;5.95;;
82806;SDS011;72563;44.816;20.484;2023-10-19T10:11:19;8.00;;;5.22;;
82806;SDS011;72563;44.816;20.484;2023-10-19T10:13:46;9.00;;;5.35;;
82806;SDS011;72563;44.816;20.484;2023-10-19T10:16:16;11.35;;;6.35;;
82806;SDS011;72563;44.816;20.484;2023-10-19T10:18:45;8.38;;;5.40;;
82806;SDS011;72563;44.816;20.484;2023-10-19T10:26:12;9.95;;;5.30;;
82806;SDS011;72563;44.816;20.484;2023-10-19T10:28:39;9.40;;;4.47;;
82806;SDS011;72563;44.816;20.484;2023-10-19T10:31:09;10.02;;;5.03;;
82806;SDS011;72563;44.816;20.484;2023-10-19T10:33:51;9.77;;;6.18;;
82806;SDS011;72563;44.816;20.484;2023-10-19T10:36:20;9.50;;;5.03;;
82806;SDS011;72563;44.816;20.484;2023-10-19T10:38:46;8.75;;;5.18;;
82806;SDS011;72563;44.816;20.484;2023-10-19T10:41:19;12.10;;;6.15;;
82806;SDS011;72563;44.816;20.484;2023-10-19T10:43:53;8.60;;;5.07;;
82806;SDS011;72563;44.816;20.484;2023-10-19T10:46:24;10.20;;;4.88;;
82806;SDS011;72563;44.816;20.484;2023-10-19T10:48:52;7.38;;;4.32;;
82806;SDS011;72563;44.816;20.484;2023-10-19T10:51:19;9.20;;;4.82;;
82806;SDS011;72563;44.816;20.484;2023-10-19T10:53:49;11.68;;;5.03;;
82806;SDS011;72563;44.816;20.484;2023-10-19T10:56:17;7.47;;;4.18;;
82806;SDS011;72563;44.816;20.484;2023-10-19T11:01:10;7.85;;;4.47;;
82806;SDS011;72563;44.816;20.484;2023-10-19T11:03:36;7.95;;;4.43;;
82806;SDS011;72563;44.816;20.484;2023-10-19T11:06:06;6.80;;;4.00;;
82806;SDS011;72563;44.816;20.484;2023-10-19T11:08:35;8.93;;;4.88;;
82806;SDS011;72563;44.816;20.484;2023-10-19T11:11:04;8.25;;;4.43;;
82806;SDS011;72563;44.816;20.484;2023-10-19T11:13:32;7.97;;;4.32;;
82806;SDS011;72563;44.816;20.484;2023-10-19T11:15:58;9.93;;;5.13;;
82806;SDS011;72563;44.816;20.484;2023-10-19T11:21:20;8.63;;;5.18;;
82806;SDS011;72563;44.816;20.484;2023-10-19T11:23:47;7.85;;;4.57;;
82806;SDS011;72563;44.816;20.484;2023-10-19T11:26:20;8.90;;;4.57;;
82806;SDS011;72563;44.816;20.484;2023-10-19T11:28:47;9.88;;;5.53;;
82806;SDS011;72563;44.816;20.484;2023-10-19T11:31:22;7.95;;;4.70;;
82806;SDS011;72563;44.816;20.484;2023-10-19T11:33:49;8.52;;;4.93;;
82806;SDS011;72563;44.816;20.484;2023-10-19T11:36:16;7.93;;;4.88;;
82806;SDS011;72563;44.816;20.484;2023-10-19T11:38:44;7.97;;;4.88;;
82806;SDS011;72563;44.816;20.484;2023-10-19T11:41:10;8.23;;;4.30;;
82806;SDS011;72563;44.816;20.484;2023-10-19T11:43:40;8.60;;;4.57;;
82806;SDS011;72563;44.816;20.484;2023-10-19T11:46:08;7.47;;;4.45;;
82806;SDS011;72563;44.816;20.484;2023-10-19T11:51:04;8.50;;;4.85;;
82806;SDS011;72563;44.816;20.484;2023-10-19T11:53:33;8.93;;;4.25;;
82806;SDS011;72563;44.816;20.484;2023-10-19T11:56:00;8.63;;;4.30;;
82806;SDS011;72563;44.816;20.484;2023-10-19T11:58:29;8.65;;;4.35;;
82806;SDS011;72563;44.816;20.484;2023-10-19T12:00:59;7.57;;;4.05;;
82806;SDS011;72563;44.816;20.484;2023-10-19T12:03:24;8.13;;;4.45;;
82806;SDS011;72563;44.816;20.484;2023-10-19T12:05:51;10.13;;;4.80;;
82806;SDS011;72563;44.816;20.484;2023-10-19T12:08:18;7.97;;;4.68;;
82806;SDS011;72563;44.816;20.484;2023-10-19T12:10:44;9.30;;;4.57;;
82806;SDS011;72563;44.816;20.484;2023-10-19T12:13:09;8.48;;;4.45;;
82806;SDS011;72563;44.816;20.484;2023-10-19T12:15:35;8.07;;;4.45;;
82806;SDS011;72563;44.816;20.484;2023-10-19T12:18:00;9.65;;;5.07;;
82806;SDS011;72563;44.816;20.484;2023-10-19T12:20:30;9.82;;;5.43;;
82806;SDS011;72563;44.816;20.484;2023-10-19T12:22:59;7.88;;;4.85;;
82806;SDS011;72563;44.816;20.484;2023-10-19T12:25:25;8.63;;;4.60;;
82806;SDS011;72563;44.816;20.484;2023-10-19T12:27:55;9.75;;;4.50;;
82806;SDS011;72563;44.816;20.484;2023-10-19T12:30:22;11.68;;;4.68;;
82806;SDS011;72563;44.816;20.484;2023-10-19T12:32:51;8.50;;;4.85;;
82806;SDS011;72563;44.816;20.484;2023-10-19T12:35:17;8.32;;;4.50;;
82806;SDS011;72563;44.816;20.484;2023-10-19T12:37:48;8.00;;;4.03;;
82806;SDS011;72563;44.816;20.484;2023-10-19T12:40:17;10.88;;;4.60;;
82806;SDS011;72563;44.816;20.484;2023-10-19T12:42:54;7.82;;;4.47;;
82806;SDS011;72563;44.816;20.484;2023-10-19T12:45:21;8.38;;;4.18;;
82806;SDS011;72563;44.816;20.484;2023-10-19T12:47:47;8.43;;;4.57;;
82806;SDS011;72563;44.816;20.484;2023-10-19T12:50:13;8.23;;;3.95;;
82806;SDS011;72563;44.816;20.484;2023-10-19T12:55:06;7.65;;;4.10;;
82806;SDS011;72563;44.816;20.484;2023-10-19T12:57:32;7.57;;;4.13;;
82806;SDS011;72563;44.816;20.484;2023-10-19T12:59:58;8.27;;;4.38;;
82806;SDS011;72563;44.816;20.484;2023-10-19T13:02:31;9.55;;;4.60;;
82806;SDS011;72563;44.816;20.484;2023-10-19T13:04:57;7.63;;;4.22;;
82806;SDS011;72563;44.816;20.484;2023-10-19T13:07:24;7.40;;;3.88;;
82806;SDS011;72563;44.816;20.484;2023-10-19T13:09:51;7.82;;;4.32;;
82806;SDS011;72563;44.816;20.484;2023-10-19T13:12:17;8.55;;;4.35;;
82806;SDS011;72563;44.816;20.484;2023-10-19T13:14:48;8.40;;;4.20;;
82806;SDS011;72563;44.816;20.484;2023-10-19T13:17:14;8.35;;;4.43;;
82806;SDS011;72563;44.816;20.484;2023-10-19T13:19:39;8.63;;;4.43;;
82806;SDS011;72563;44.816;20.484;2023-10-19T13:22:05;10.45;;;4.35;;
82806;SDS011;72563;44.816;20.484;2023-10-19T13:24:32;10.15;;;4.60;;
82806;SDS011;72563;44.816;20.484;2023-10-19T13:27:05;9.80;;;4.80;;
82806;SDS011;72563;44.816;20.484;2023-10-19T13:29:31;8.23;;;4.75;;
82806;SDS011;72563;44.816;20.484;2023-10-19T13:32:02;9.52;;;5.55;;
82806;SDS011;72563;44.816;20.484;2023-10-19T13:34:28;8.50;;;5.05;;
82806;SDS011;72563;44.816;20.484;2023-10-19T13:36:53;10.43;;;5.30;;
82806;SDS011;72563;44.816;20.484;2023-10-19T13:39:21;9.50;;;4.60;;
82806;SDS011;72563;44.816;20.484;2023-10-19T13:41:50;8.10;;;4.72;;
82806;SDS011;72563;44.816;20.484;2023-10-19T13:44:17;8.68;;;5.63;;
82806;SDS011;72563;44.816;20.484;2023-10-19T13:46:45;14.02;;;5.50;;
82806;SDS011;72563;44.816;20.484;2023-10-19T13:49:30;9.40;;;4.97;;
82806;SDS011;72563;44.816;20.484;2023-10-19T13:51:57;10.75;;;5.60;;
82806;SDS011;72563;44.816;20.484;2023-10-19T13:54:23;10.40;;;5.75;;
82806;SDS011;72563;44.816;20.484;2023-10-19T13:56:48;10.30;;;5.43;;
82806;SDS011;72563;44.816;20.484;2023-10-19T13:59:15;8.32;;;5.35;;
82806;SDS011;72563;44.816;20.484;2023-10-19T14:01:41;9.65;;;5.20;;
82806;SDS011;72563;44.816;20.484;2023-10-19T14:04:06;10.52;;;4.95;;
82806;SDS011;72563;44.816;20.484;2023-10-19T14:06:32;8.60;;;5.18;;
82806;SDS011;72563;44.816;20.484;2023-10-19T14:08:57;7.85;;;4.63;;
82806;SDS011;72563;44.816;20.484;2023-10-19T14:11:23;10.68;;;5.18;;
82806;SDS011;72563;44.816;20.484;2023-10-19T14:13:48;8.65;;;4.50;;
82806;SDS011;72563;44.816;20.484;2023-10-19T14:16:17;9.52;;;5.43;;
82806;SDS011;72563;44.816;20.484;2023-10-19T14:18:42;10.10;;;5.50;;
82806;SDS011;72563;44.816;20.484;2023-10-19T14:21:15;10.77;;;5.63;;
82806;SDS011;72563;44.816;20.484;2023-10-19T14:23:42;9.00;;;5.75;;
82806;SDS011;72563;44.816;20.484;2023-10-19T14:26:09;11.02;;;5.68;;
82806;SDS011;72563;44.816;20.484;2023-10-19T14:28:35;13.52;;;5.40;;
82806;SDS011;72563;44.816;20.484;2023-10-19T14:31:01;10.02;;;5.30;;
82806;SDS011;72563;44.816;20.484;2023-10-19T14:33:29;9.57;;;5.85;;
82806;SDS011;72563;44.816;20.484;2023-10-19T14:35:55;9.80;;;5.45;;
82806;SDS011;72563;44.816;20.484;2023-10-19T14:38:20;11.65;;;6.38;;
82806;SDS011;72563;44.816;20.484;2023-10-19T14:40:46;9.30;;;5.70;;
82806;SDS011;72563;44.816;20.484;2023-10-19T14:43:13;10.55;;;5.63;;
82806;SDS011;72563;44.816;20.484;2023-10-19T14:45:40;11.68;;;6.18;;
82806;SDS011;72563;44.816;20.484;2023-10-19T14:48:06;10.32;;;5.45;;
82806;SDS011;72563;44.816;20.484;2023-10-19T14:50:35;11.57;;;6.38;;
82806;SDS011;72563;44.816;20.484;2023-10-19T14:53:01;11.95;;;6.88;;
82806;SDS011;72563;44.816;20.484;2023-10-19T14:55:27;12.52;;;6.80;;
82806;SDS011;72563;44.816;20.484;2023-10-19T14:57:53;10.00;;;5.10;;
82806;SDS011;72563;44.816;20.484;2023-10-19T15:00:21;10.15;;;5.88;;
82806;SDS011;72563;44.816;20.484;2023-10-19T15:03:02;11.85;;;5.80;;
82806;SDS011;72563;44.816;20.484;2023-10-19T15:05:35;9.90;;;5.75;;
82806;SDS011;72563;44.816;20.484;2023-10-19T15:08:01;13.13;;;6.13;;
82806;SDS011;72563;44.816;20.484;2023-10-19T15:10:30;10.00;;;5.43;;